Time;durP1;ratioP1;P1;durP2;ratioP2;P2;SDS_P1;SDS_P2;PMS_P1;PMS_P2;Temp;Humidity;BMP_temperature;BMP_pressure;BME280_temperature;BME280_humidity;BME280_pressure;Samples;Min_cycle;Max_cycle;Signal;HPM_P1;HPM_P2
2022/07/17 00:01:41;;;;;;;8.68;2.60;;;14.40;99.90;;;;;;4972874;28;20027;-69
2022/07/17 00:04:07;;;;;;;6.53;3.40;;;14.30;99.90;;;;;;4972359;28;20018;-67
2022/07/17 00:06:33;;;;;;;7.85;2.80;;;14.30;99.90;;;;;;4972147;28;20034;-67
2022/07/17 00:09:00;;;;;;;5.85;2.80;;;14.30;99.90;;;;;;4972620;28;20102;-67
2022/07/17 00:11:26;;;;;;;9.18;3.45;;;14.30;99.90;;;;;;4972588;28;20026;-68
2022/07/17 00:13:53;;;;;;;12.40;3.38;;;14.30;99.90;;;;;;4972452;28;20027;-69
2022/07/17 00:16:18;;;;;;;17.38;4.15;;;14.20;99.90;;;;;;4972736;28;20033;-70
2022/07/17 00:18:44;;;;;;;10.27;2.90;;;14.20;99.90;;;;;;4972796;28;20370;-68
2022/07/17 00:21:09;;;;;;;8.70;2.83;;;14.20;99.90;;;;;;4972367;28;20065;-67
2022/07/17 00:23:35;;;;;;;11.73;3.05;;;14.20;99.90;;;;;;4972240;28;20022;-66
2022/07/17 00:26:01;;;;;;;5.40;2.53;;;14.20;99.90;;;;;;4972470;28;20031;-67
2022/07/17 00:28:26;;;;;;;6.65;3.05;;;14.20;99.90;;;;;;4970723;28;20057;-67
2022/07/17 00:30:52;;;;;;;7.40;3.10;;;14.20;99.90;;;;;;4972206;28;20027;-69
2022/07/17 00:33:18;;;;;;;12.52;3.10;;;14.10;99.90;;;;;;4972545;28;20058;-66
2022/07/17 00:35:44;;;;;;;7.55;2.83;;;14.10;99.90;;;;;;4971125;28;20116;-68
2022/07/17 00:38:10;;;;;;;9.73;2.90;;;14.20;99.90;;;;;;4972740;28;20031;-67
2022/07/17 00:40:36;;;;;;;6.78;2.97;;;14.10;99.90;;;;;;4972845;28;20033;-67
2022/07/17 00:43:01;;;;;;;11.15;3.25;;;14.10;99.90;;;;;;4975373;28;20019;-68
2022/07/17 00:45:27;;;;;;;9.80;3.03;;;14.20;99.90;;;;;;4939863;28;1067401;-67
2022/07/17 00:48:03;;;;;;;8.88;3.38;;;14.20;99.90;;;;;;4977372;28;20027;-66
2022/07/17 00:50:35;;;;;;;6.53;3.45;;;14.20;99.90;;;;;;4977228;28;20026;-67
2022/07/17 00:53:02;;;;;;;10.13;4.63;;;14.20;99.90;;;;;;4977281;28;20026;-67
2022/07/17 00:55:28;;;;;;;9.30;3.45;;;14.30;99.90;;;;;;4976814;28;20038;-66
2022/07/17 00:57:55;;;;;;;7.60;3.50;;;14.30;99.90;;;;;;4977029;28;20074;-66
2022/07/17 01:00:22;;;;;;;10.00;3.45;;;14.30;99.90;;;;;;4976713;28;20027;-66
2022/07/17 01:02:49;;;;;;;10.10;3.15;;;14.30;99.90;;;;;;4976793;28;20023;-68
2022/07/17 01:05:17;;;;;;;8.93;3.30;;;14.30;99.90;;;;;;4975277;28;20023;-66
2022/07/17 01:07:44;;;;;;;7.35;2.90;;;14.30;99.90;;;;;;4977047;28;20027;-67
2022/07/17 01:10:10;;;;;;;11.63;3.15;;;14.30;99.90;;;;;;4976701;28;20023;-65
2022/07/17 01:12:36;;;;;;;8.90;3.53;;;14.30;99.90;;;;;;4976552;28;20057;-67
2022/07/17 01:15:03;;;;;;;10.05;2.70;;;14.40;99.90;;;;;;4976195;28;20450;-66
2022/07/17 01:17:29;;;;;;;7.38;3.17;;;14.40;99.90;;;;;;4976467;28;20038;-67
2022/07/17 01:19:55;;;;;;;6.55;3.30;;;14.40;99.90;;;;;;4976332;28;20023;-68
2022/07/17 01:22:21;;;;;;;9.20;3.20;;;14.30;99.90;;;;;;4976629;28;20445;-67
2022/07/17 01:24:46;;;;;;;7.30;2.90;;;14.30;99.90;;;;;;4976633;28;20070;-66
2022/07/17 01:27:12;;;;;;;9.68;3.00;;;14.30;99.90;;;;;;4975123;28;20045;-67
2022/07/17 01:29:38;;;;;;;10.70;2.75;;;14.20;99.90;;;;;;4976038;28;20031;-66
2022/07/17 01:32:05;;;;;;;8.40;3.30;;;14.10;99.90;;;;;;4976516;28;20033;-66
2022/07/17 01:34:31;;;;;;;7.90;2.83;;;14.00;99.90;;;;;;4976476;28;20049;-67
2022/07/17 01:36:57;;;;;;;8.88;2.97;;;13.90;99.90;;;;;;4976220;28;20391;-66
2022/07/17 01:39:52;;;;;;;8.82;3.30;;;13.90;99.90;;;;;;4976018;28;20029;-67
2022/07/17 01:42:09;;;;;;;7.03;2.78;;;13.80;99.90;;;;;;4975657;28;20109;-68
2022/07/17 01:44:34;;;;;;;6.38;2.90;;;13.80;99.90;;;;;;4974471;28;20062;-67
2022/07/17 01:47:00;;;;;;;7.72;3.10;;;13.80;99.90;;;;;;4976062;28;20026;-67
2022/07/17 01:49:26;;;;;;;5.97;2.80;;;13.70;99.90;;;;;;4974276;28;20166;-67
2022/07/17 01:51:51;;;;;;;9.02;3.30;;;13.70;99.90;;;;;;4975868;28;20054;-67
2022/07/17 01:54:17;;;;;;;8.85;3.15;;;13.60;99.90;;;;;;4975480;28;20072;-69
2022/07/17 01:56:43;;;;;;;9.60;3.10;;;13.60;99.90;;;;;;4975725;28;20058;-67
2022/07/17 01:59:08;;;;;;;11.57;2.97;;;13.60;99.90;;;;;;4974162;28;20030;-67
2022/07/17 02:01:34;;;;;;;9.52;3.10;;;13.50;99.90;;;;;;4975311;28;20023;-65
2022/07/17 02:03:59;;;;;;;9.23;4.10;;;13.50;99.90;;;;;;4975478;28;20031;-67
2022/07/17 02:06:26;;;;;;;9.88;3.65;;;13.50;99.90;;;;;;4975599;28;20472;-67
2022/07/17 02:08:51;;;;;;;8.85;3.10;;;13.50;99.90;;;;;;4975412;28;20146;-67
2022/07/17 02:11:17;;;;;;;11.23;3.15;;;13.50;99.90;;;;;;4975698;28;20109;-67
2022/07/17 02:13:43;;;;;;;7.30;3.20;;;13.50;99.90;;;;;;4975529;28;20154;-68
2022/07/17 02:16:09;;;;;;;8.32;3.13;;;13.50;99.90;;;;;;4974170;28;20480;-66
2022/07/17 02:18:34;;;;;;;10.32;3.70;;;13.50;99.90;;;;;;4975432;28;20034;-66
2022/07/17 02:21:00;;;;;;;6.03;3.05;;;13.50;99.90;;;;;;4975445;28;20019;-66
2022/07/17 02:23:28;;;;;;;6.63;3.00;;;13.50;99.90;;;;;;4975322;28;20023;-67
2022/07/17 02:25:53;;;;;;;9.07;3.15;;;13.50;99.90;;;;;;4975223;28;20015;-67
2022/07/17 02:28:19;;;;;;;6.32;3.13;;;13.50;99.90;;;;;;4975371;28;20030;-66
2022/07/17 02:30:46;;;;;;;7.18;2.97;;;13.40;99.90;;;;;;4975163;28;20412;-67
2022/07/17 02:33:11;;;;;;;6.45;2.70;;;13.40;99.90;;;;;;4973548;28;20023;-66
2022/07/17 02:35:37;;;;;;;7.68;2.72;;;13.40;99.90;;;;;;4974731;28;20101;-66
2022/07/17 02:38:02;;;;;;;6.90;2.78;;;13.40;99.90;;;;;;4974844;28;20066;-67
2022/07/17 02:40:28;;;;;;;9.02;3.22;;;13.30;99.90;;;;;;4975379;28;20520;-68
2022/07/17 02:42:54;;;;;;;9.45;3.42;;;13.30;99.90;;;;;;4975011;28;20019;-67
2022/07/17 02:45:24;;;;;;;7.07;3.13;;;13.30;99.90;;;;;;4974726;28;20380;-66
2022/07/17 02:47:50;;;;;;;6.32;2.90;;;13.40;99.90;;;;;;4974582;28;20109;-68
2022/07/17 02:50:16;;;;;;;9.00;3.20;;;13.40;99.90;;;;;;4974830;28;20051;-67
2022/07/17 02:52:43;;;;;;;5.25;2.70;;;13.40;99.90;;;;;;4974488;28;20058;-67
2022/07/17 02:55:10;;;;;;;6.00;2.72;;;13.40;99.90;;;;;;4974604;28;20038;-66
2022/07/17 02:57:37;;;;;;;10.32;2.97;;;13.40;99.90;;;;;;4974700;28;20385;-68
2022/07/17 03:00:06;;;;;;;13.50;4.43;;;13.40;99.90;;;;;;4974325;28;20030;-66
2022/07/17 03:02:31;;;;;;;8.52;3.10;;;13.40;99.90;;;;;;4974484;28;20030;-66
2022/07/17 03:04:57;;;;;;;10.50;2.92;;;13.40;99.90;;;;;;4973472;28;20388;-67
2022/07/17 03:07:22;;;;;;;7.43;2.90;;;13.40;99.90;;;;;;4974622;28;20026;-66
2022/07/17 03:09:48;;;;;;;5.70;2.80;;;13.30;99.90;;;;;;4974650;28;20034;-67
2022/07/17 03:12:14;;;;;;;8.85;2.67;;;13.30;99.90;;;;;;4974367;28;20368;-69
2022/07/17 03:14:39;;;;;;;8.43;3.10;;;13.30;99.90;;;;;;4974273;28;20052;-69
2022/07/17 03:17:05;;;;;;;5.72;2.65;;;13.30;99.90;;;;;;4974657;28;20465;-67
2022/07/17 03:19:31;;;;;;;7.32;2.67;;;13.20;99.90;;;;;;4974289;28;20342;-67
2022/07/17 03:21:56;;;;;;;7.78;2.97;;;13.20;99.90;;;;;;4974197;28;20022;-70
2022/07/17 03:24:22;;;;;;;8.30;2.88;;;13.10;99.90;;;;;;4973944;28;20125;-67
2022/07/17 03:26:47;;;;;;;3.83;2.45;;;13.10;99.90;;;;;;4974095;28;20058;-67
2022/07/17 03:29:17;;;;;;;7.68;3.10;;;13.10;99.90;;;;;;4974147;28;20049;-67
2022/07/17 03:31:43;;;;;;;8.60;2.80;;;13.10;99.90;;;;;;4973932;28;20019;-69
2022/07/17 03:34:08;;;;;;;7.22;3.05;;;13.00;99.90;;;;;;4972595;28;20030;-69
2022/07/17 03:36:34;;;;;;;4.10;2.45;;;13.00;99.90;;;;;;4974001;28;20085;-69
2022/07/17 03:39:00;;;;;;;6.20;2.75;;;13.00;99.90;;;;;;4973646;28;20101;-68
2022/07/17 03:41:25;;;;;;;11.00;2.70;;;13.00;99.90;;;;;;4973767;28;20082;-67
2022/07/17 03:43:51;;;;;;;7.13;3.08;;;13.00;99.90;;;;;;4973964;28;20025;-67
2022/07/17 03:46:17;;;;;;;8.43;2.60;;;12.90;99.90;;;;;;4971546;28;20080;-66
2022/07/17 03:48:43;;;;;;;5.97;2.67;;;13.00;99.90;;;;;;4973377;28;20029;-70
2022/07/17 03:51:08;;;;;;;8.13;2.85;;;13.00;99.90;;;;;;4972785;28;20125;-67
2022/07/17 03:53:34;;;;;;;6.32;3.15;;;13.00;99.90;;;;;;4972392;28;20023;-67
2022/07/17 03:55:59;;;;;;;9.05;3.58;;;13.00;99.90;;;;;;4972061;28;20027;-66
2022/07/17 03:58:25;;;;;;;10.07;3.20;;;13.10;99.90;;;;;;4974844;28;20034;-66
2022/07/17 04:00:50;;;;;;;8.15;3.17;;;13.10;99.90;;;;;;4975727;28;20026;-66
2022/07/17 04:03:16;;;;;;;6.65;2.75;;;13.10;99.90;;;;;;4972869;28;20022;-69
2022/07/17 04:05:41;;;;;;;6.15;2.95;;;13.20;99.90;;;;;;4973148;28;20027;-70
2022/07/17 04:08:07;;;;;;;8.88;2.72;;;13.20;99.90;;;;;;4972700;28;20033;-68
2022/07/17 04:10:32;;;;;;;8.27;3.08;;;13.20;99.90;;;;;;4973021;28;20076;-67
2022/07/17 04:12:58;;;;;;;7.97;2.88;;;13.20;99.90;;;;;;4973017;28;21276;-67
2022/07/17 04:18:08;;;;;;;7.90;2.90;;;13.20;99.90;;;;;;4970444;28;20037;-67
2022/07/17 04:20:34;;;;;;;6.38;3.30;;;13.30;99.90;;;;;;4972936;28;20372;-68
2022/07/17 04:22:59;;;;;;;6.03;3.00;;;13.30;99.90;;;;;;4972409;28;20035;-68
2022/07/17 04:25:25;;;;;;;11.00;3.40;;;13.30;99.90;;;;;;4972687;28;20015;-66
2022/07/17 04:27:51;;;;;;;8.82;3.42;;;13.40;99.90;;;;;;4973143;28;20446;-66
2022/07/17 04:30:16;;;;;;;7.28;3.50;;;13.50;99.90;;;;;;4972636;28;20015;-67
2022/07/17 04:32:42;;;;;;;12.68;4.13;;;13.60;99.90;;;;;;4972794;28;20058;-69
2022/07/17 04:35:07;;;;;;;7.35;3.47;;;13.80;99.90;;;;;;4972374;28;20408;-68
2022/07/17 04:37:33;;;;;;;12.48;3.72;;;14.00;99.90;;;;;;4972750;28;20014;-67
2022/07/17 04:39:58;;;;;;;13.52;4.03;;;14.20;99.90;;;;;;4972815;28;20034;-67
2022/07/17 04:42:24;;;;;;;8.57;4.25;;;14.40;99.90;;;;;;4972690;28;20093;-68
2022/07/17 04:44:50;;;;;;;11.80;3.60;;;14.60;99.90;;;;;;4972335;28;20046;-66
2022/07/17 04:47:15;;;;;;;7.20;3.85;;;14.80;99.90;;;;;;4972631;28;20413;-67
2022/07/17 04:49:41;;;;;;;9.50;3.90;;;15.00;99.90;;;;;;4972631;28;20365;-67
2022/07/17 04:52:06;;;;;;;9.35;4.00;;;15.10;99.90;;;;;;4972326;28;20409;-68
2022/07/17 04:54:32;;;;;;;7.63;3.50;;;15.20;99.90;;;;;;4972491;28;20113;-69
2022/07/17 04:56:57;;;;;;;8.68;3.40;;;15.30;99.90;;;;;;4972931;28;20400;-68
2022/07/17 04:59:23;;;;;;;11.25;3.83;;;15.50;99.90;;;;;;4972513;28;20018;-70
2022/07/17 05:01:48;;;;;;;11.60;3.83;;;15.60;99.90;;;;;;4972638;28;20023;-67
2022/07/17 05:04:14;;;;;;;10.48;3.90;;;15.60;99.90;;;;;;4972675;28;20045;-67
2022/07/17 05:06:39;;;;;;;14.07;4.18;;;15.80;99.90;;;;;;4972486;28;20027;-67
2022/07/17 05:09:05;;;;;;;15.68;5.68;;;15.80;99.90;;;;;;4972922;28;20346;-67
2022/07/17 05:11:30;;;;;;;8.82;4.00;;;15.80;99.90;;;;;;4972761;28;20022;-68
2022/07/17 05:13:56;;;;;;;10.27;3.70;;;15.80;99.90;;;;;;4972649;28;20030;-67
2022/07/17 05:16:22;;;;;;;7.75;2.90;;;15.70;99.90;;;;;;4972577;28;20022;-66
2022/07/17 05:18:47;;;;;;;8.73;3.30;;;15.70;99.90;;;;;;4972152;28;20112;-67
2022/07/17 05:21:14;;;;;;;8.80;2.95;;;15.70;99.90;;;;;;4972819;28;20453;-65
2022/07/17 05:23:40;;;;;;;7.97;3.70;;;15.70;99.90;;;;;;4972528;28;20023;-66
2022/07/17 05:26:06;;;;;;;8.05;2.67;;;15.80;99.90;;;;;;4972511;28;20030;-67
2022/07/17 05:28:31;;;;;;;6.22;2.78;;;15.80;99.90;;;;;;4974390;28;20027;-71
2022/07/17 05:30:57;;;;;;;5.82;2.08;;;15.90;99.90;;;;;;4976045;28;20093;-67
2022/07/17 05:33:22;;;;;;;7.95;2.42;;;16.00;99.90;;;;;;4975782;28;20037;-67
2022/07/17 05:35:48;;;;;;;6.10;1.55;;;16.00;99.90;;;;;;4975870;28;20039;-69
2022/07/17 05:38:14;;;;;;;5.68;1.90;;;16.10;99.90;;;;;;4975958;28;20023;-67
2022/07/17 05:40:39;;;;;;;3.47;1.83;;;16.20;99.90;;;;;;4975974;28;20043;-69
2022/07/17 05:43:06;;;;;;;4.95;1.65;;;16.40;99.90;;;;;;4975557;28;20038;-66
2022/07/17 05:45:31;;;;;;;10.50;2.65;;;16.70;99.90;;;;;;4975572;28;20043;-67
2022/07/17 05:47:57;;;;;;;10.68;2.10;;;17.10;99.90;;;;;;4975808;28;20045;-67
2022/07/17 05:50:22;;;;;;;4.28;1.70;;;17.50;99.90;;;;;;4975640;28;20023;-69
2022/07/17 05:52:48;;;;;;;6.22;1.60;;;17.90;99.90;;;;;;4975881;28;20166;-66
2022/07/17 05:55:14;;;;;;;6.05;1.50;;;18.30;99.90;;;;;;4975708;28;20027;-67
2022/07/17 05:57:39;;;;;;;3.55;1.30;;;18.80;99.90;;;;;;4975808;28;20106;-66
2022/07/17 06:00:06;;;;;;;6.88;1.90;;;19.40;99.70;;;;;;4976485;28;20033;-67
2022/07/17 06:02:31;;;;;;;7.88;1.58;;;20.00;98.90;;;;;;4976063;28;20023;-67
2022/07/17 06:04:57;;;;;;;4.95;1.67;;;20.80;98.00;;;;;;4976178;28;20046;-68
2022/07/17 06:07:22;;;;;;;7.93;2.20;;;21.70;97.20;;;;;;4975947;28;20033;-67
2022/07/17 06:09:48;;;;;;;2.53;1.30;;;22.60;95.80;;;;;;4975780;28;20057;-69
2022/07/17 06:12:13;;;;;;;2.55;1.17;;;23.60;94.40;;;;;;4974665;28;20023;-68
2022/07/17 06:14:39;;;;;;;3.47;1.33;;;24.40;92.80;;;;;;4975912;28;20026;-68
2022/07/17 06:17:04;;;;;;;5.43;1.40;;;25.20;91.10;;;;;;4975751;28;20023;-67
2022/07/17 06:19:30;;;;;;;4.15;1.30;;;25.90;88.60;;;;;;4975655;28;20123;-66
2022/07/17 06:21:56;;;;;;;2.95;1.67;;;26.60;86.10;;;;;;4974393;28;20019;-69
2022/07/17 06:24:21;;;;;;;6.47;1.80;;;27.10;84.70;;;;;;4975718;28;20026;-68
2022/07/17 06:26:47;;;;;;;4.38;1.48;;;27.70;83.50;;;;;;4975891;28;20033;-68
2022/07/17 06:29:12;;;;;;;3.85;1.20;;;28.30;81.60;;;;;;4975736;28;20453;-66
2022/07/17 06:31:38;;;;;;;5.25;1.50;;;28.80;79.60;;;;;;4975442;28;20027;-67
2022/07/17 06:34:03;;;;;;;5.10;1.40;;;29.10;77.90;;;;;;4975511;28;20033;-66
2022/07/17 06:36:29;;;;;;;5.00;1.73;;;29.40;76.80;;;;;;4975485;28;20045;-67
2022/07/17 06:38:54;;;;;;;5.03;1.70;;;29.50;76.40;;;;;;4974756;28;20019;-70
2022/07/17 06:41:20;;;;;;;6.43;2.22;;;29.80;75.50;;;;;;4974956;28;20081;-68
2022/07/17 06:43:45;;;;;;;6.05;1.77;;;30.20;74.00;;;;;;4975132;28;20077;-68
2022/07/17 06:46:11;;;;;;;5.70;1.67;;;30.70;72.30;;;;;;4974864;28;20531;-67
2022/07/17 06:48:36;;;;;;;6.88;1.88;;;30.90;71.50;;;;;;4975274;28;20373;-67
2022/07/17 06:51:02;;;;;;;5.55;1.58;;;31.20;70.90;;;;;;4975138;28;20392;-67
2022/07/17 06:53:28;;;;;;;4.05;1.27;;;31.40;69.70;;;;;;4975222;28;20373;-67
2022/07/17 06:55:53;;;;;;;6.72;1.90;;;31.60;68.70;;;;;;4975006;28;20030;-66
2022/07/17 06:58:19;;;;;;;6.00;1.50;;;31.90;68.60;;;;;;4975176;28;20460;-66
2022/07/17 07:00:44;;;;;;;10.85;2.03;;;32.20;67.30;;;;;;4974818;28;20042;-66
2022/07/17 07:03:10;;;;;;;5.10;1.73;;;32.30;66.40;;;;;;4974850;28;20029;-67
2022/07/17 07:05:36;;;;;;;4.75;1.90;;;32.30;66.60;;;;;;4975479;28;20060;-68
2022/07/17 07:08:02;;;;;;;6.03;1.55;;;32.70;66.20;;;;;;4975071;28;20033;-66
2022/07/17 07:10:27;;;;;;;4.63;1.45;;;32.90;65.50;;;;;;4974895;28;20118;-67
2022/07/17 07:12:53;;;;;;;4.75;1.70;;;33.00;64.50;;;;;;4974998;28;20033;-67
2022/07/17 07:15:19;;;;;;;3.85;1.00;;;33.30;63.70;;;;;;4974717;28;20038;-68
2022/07/17 07:17:44;;;;;;;7.20;1.30;;;33.40;63.20;;;;;;4974409;28;20026;-67
2022/07/17 07:20:10;;;;;;;7.07;1.63;;;33.50;63.10;;;;;;4975019;28;20039;-68
2022/07/17 07:22:36;;;;;;;3.75;1.80;;;33.60;63.10;;;;;;4974931;28;20098;-67
2022/07/17 07:25:03;;;;;;;5.70;2.05;;;33.60;62.50;;;;;;4974915;28;20101;-67
2022/07/17 07:27:28;;;;;;;5.55;1.63;;;33.40;62.20;;;;;;4974159;28;20026;-67
2022/07/17 07:29:54;;;;;;;5.63;1.85;;;33.10;62.80;;;;;;4974686;28;20479;-69
2022/07/17 07:32:20;;;;;;;3.78;1.20;;;33.10;62.50;;;;;;4974284;28;20421;-69
2022/07/17 07:34:45;;;;;;;5.90;2.20;;;33.00;62.80;;;;;;4974365;28;20054;-67
2022/07/17 07:37:11;;;;;;;4.45;1.55;;;32.90;62.90;;;;;;4974283;28;20034;-67
2022/07/17 07:39:36;;;;;;;4.43;1.05;;;32.90;62.60;;;;;;4972531;28;20026;-68
2022/07/17 07:42:02;;;;;;;4.70;1.48;;;33.00;62.20;;;;;;4974097;28;20029;-66
2022/07/17 07:44:28;;;;;;;3.70;1.20;;;32.70;62.40;;;;;;4974066;28;20487;-66
2022/07/17 07:46:53;;;;;;;2.92;0.98;;;32.50;62.10;;;;;;4973985;28;20026;-68
2022/07/17 07:49:19;;;;;;;2.03;0.90;;;32.00;62.50;;;;;;4974232;28;20026;-66
2022/07/17 07:51:44;;;;;;;4.20;1.35;;;31.50;62.40;;;;;;4973861;28;20485;-67
2022/07/17 07:54:10;;;;;;;3.78;1.30;;;31.00;62.70;;;;;;4973929;28;20340;-67
2022/07/17 07:56:36;;;;;;;3.30;1.42;;;30.40;62.60;;;;;;4973798;28;20473;-66
2022/07/17 07:59:02;;;;;;;3.50;1.13;;;30.00;63.60;;;;;;4974252;28;20034;-66
2022/07/17 08:01:28;;;;;;;2.70;1.20;;;29.60;63.60;;;;;;4973370;28;20034;-69
2022/07/17 08:03:54;;;;;;;3.15;0.98;;;29.00;64.50;;;;;;4973896;28;20022;-67
2022/07/17 08:06:19;;;;;;;4.90;1.50;;;28.60;65.10;;;;;;4972697;28;20026;-66
2022/07/17 08:08:45;;;;;;;4.15;1.25;;;28.30;66.00;;;;;;4972643;28;20019;-67
2022/07/17 08:11:10;;;;;;;3.72;1.10;;;28.00;66.90;;;;;;4973631;28;20090;-68
2022/07/17 08:13:36;;;;;;;3.22;0.90;;;27.90;67.10;;;;;;4973767;28;20022;-66
2022/07/17 08:16:02;;;;;;;3.08;1.23;;;28.00;66.60;;;;;;4973527;28;20057;-68
2022/07/17 08:18:27;;;;;;;5.80;1.30;;;28.20;67.00;;;;;;4974145;28;20046;-66
2022/07/17 08:20:53;;;;;;;4.03;1.60;;;28.50;66.40;;;;;;4973655;28;20102;-67
2022/07/17 08:23:19;;;;;;;4.72;1.27;;;28.90;65.60;;;;;;4973392;28;20031;-66
2022/07/17 08:25:47;;;;;;;5.35;1.48;;;29.50;65.30;;;;;;4972791;28;20027;-69
2022/07/17 08:28:13;;;;;;;2.50;1.38;;;30.20;63.80;;;;;;4972996;28;20025;-68
2022/07/17 08:30:39;;;;;;;4.72;1.17;;;30.90;63.60;;;;;;4973343;28;20038;-66
2022/07/17 08:33:08;;;;;;;2.58;1.13;;;31.50;62.60;;;;;;4973044;28;20097;-67
2022/07/17 08:35:34;;;;;;;2.17;1.10;;;32.50;61.70;;;;;;4973181;28;20031;-68
2022/07/17 08:38:00;;;;;;;4.15;1.23;;;33.60;59.60;;;;;;4972273;28;20034;-69
2022/07/17 08:40:29;;;;;;;2.60;1.05;;;34.70;58.90;;;;;;4971982;28;20027;-67
2022/07/17 08:42:56;;;;;;;4.40;1.30;;;35.80;57.40;;;;;;4972067;28;20055;-67
2022/07/17 08:45:23;;;;;;;2.72;1.33;;;36.70;55.40;;;;;;4973230;28;20084;-66
2022/07/17 08:47:51;;;;;;;4.22;1.58;;;37.40;55.30;;;;;;4972971;28;20456;-67
2022/07/17 08:50:21;;;;;;;3.83;1.20;;;37.80;53.70;;;;;;4973164;28;20023;-67
2022/07/17 08:52:46;;;;;;;2.30;0.93;;;38.30;53.20;;;;;;4973492;28;20050;-70
2022/07/17 08:55:13;;;;;;;3.72;1.25;;;38.40;52.40;;;;;;4967516;28;20535;-68
2022/07/17 08:57:44;;;;;;;2.63;1.15;;;38.80;52.50;;;;;;4972229;28;20364;-67
2022/07/17 09:00:15;;;;;;;3.57;1.80;;;39.30;52.10;;;;;;4973232;28;20031;-66
2022/07/17 09:03:00;;;;;;;1.65;1.10;;;39.70;51.00;;;;;;4974218;28;20079;-67
2022/07/17 09:05:33;;;;;;;2.72;1.48;;;39.90;49.80;;;;;;4977267;28;20034;-66
2022/07/17 09:07:59;;;;;;;2.13;1.13;;;40.10;49.00;;;;;;4976753;28;20027;-68
2022/07/17 09:10:31;;;;;;;3.03;1.30;;;40.10;48.60;;;;;;4976687;28;20031;-67
2022/07/17 09:12:57;;;;;;;2.53;1.13;;;40.00;49.30;;;;;;4977024;28;20031;-67
2022/07/17 09:15:23;;;;;;;2.53;1.10;;;40.00;48.50;;;;;;4976741;28;20065;-67
2022/07/17 09:17:54;;;;;;;2.63;1.35;;;40.20;48.40;;;;;;4976024;28;20053;-69
2022/07/17 09:20:21;;;;;;;3.78;1.30;;;40.50;48.30;;;;;;4977007;28;20053;-67
2022/07/17 09:22:58;;;;;;;2.40;1.20;;;40.90;47.60;;;;;;4976291;28;20023;-68
2022/07/17 09:25:46;;;;;;;2.72;1.10;;;41.30;46.70;;;;;;4975563;28;20015;-67
2022/07/17 09:28:16;;;;;;;5.75;1.83;;;41.20;45.80;;;;;;4976678;28;20473;-66
2022/07/17 09:30:48;;;;;;;3.58;1.50;;;40.90;46.30;;;;;;4976665;28;20022;-69
2022/07/17 09:33:17;;;;;;;6.80;2.15;;;41.10;46.40;;;;;;4976533;28;20081;-70
2022/07/17 09:35:56;;;;;;;3.90;1.23;;;41.20;46.10;;;;;;4976605;28;20034;-68
2022/07/17 09:38:36;;;;;;;3.70;1.17;;;41.40;45.10;;;;;;4976260;28;20046;-66
2022/07/17 09:41:15;;;;;;;2.78;1.40;;;41.30;45.30;;;;;;4976527;28;20023;-65
2022/07/17 09:43:52;;;;;;;4.75;2.03;;;41.10;45.70;;;;;;4976472;28;20047;-67
2022/07/17 09:46:30;;;;;;;1.95;1.33;;;41.20;45.80;;;;;;4976077;28;20042;-69
2022/07/17 09:48:58;;;;;;;2.70;1.63;;;41.20;45.60;;;;;;4976155;28;20508;-66
2022/07/17 09:51:27;;;;;;;4.32;1.50;;;41.20;45.40;;;;;;4975980;28;20050;-67
2022/07/17 09:53:56;;;;;;;2.65;1.00;;;41.40;44.80;;;;;;4976006;28;20471;-66
2022/07/17 09:56:23;;;;;;;5.25;2.17;;;41.80;44.50;;;;;;4976094;28;20111;-68
2022/07/17 09:58:51;;;;;;;2.40;1.23;;;41.90;44.20;;;;;;4976206;28;20022;-69
2022/07/17 10:01:18;;;;;;;1.80;1.00;;;42.20;44.20;;;;;;4976211;28;20058;-67
2022/07/17 10:03:44;;;;;;;3.25;1.35;;;42.40;43.50;;;;;;4976046;28;20095;-66
2022/07/17 10:06:11;;;;;;;1.35;1.20;;;42.50;42.60;;;;;;4976204;28;20030;-66
2022/07/17 10:08:38;;;;;;;2.30;1.45;;;42.60;42.70;;;;;;4975817;28;20026;-67
2022/07/17 10:11:08;;;;;;;3.33;1.70;;;42.90;42.30;;;;;;4975597;28;20037;-66
2022/07/17 10:13:40;;;;;;;2.05;1.45;;;43.10;42.10;;;;;;4975783;28;20019;-66
2022/07/17 10:16:06;;;;;;;3.08;1.30;;;43.10;42.00;;;;;;4976015;28;20037;-66
2022/07/17 10:18:44;;;;;;;3.28;1.48;;;43.10;42.10;;;;;;4975704;28;20022;-67
2022/07/17 10:21:14;;;;;;;1.85;1.40;;;43.30;42.00;;;;;;4973064;28;20027;-67
2022/07/17 10:23:41;;;;;;;1.92;1.38;;;43.50;41.20;;;;;;4975937;28;20041;-66
2022/07/17 10:26:07;;;;;;;4.28;1.95;;;43.20;41.40;;;;;;4975748;28;20043;-65
2022/07/17 10:28:46;;;;;;;4.38;2.00;;;43.00;41.60;;;;;;4975518;28;20034;-66
2022/07/17 10:31:27;;;;;;;4.20;1.77;;;43.00;41.80;;;;;;4970457;28;20035;-69
2022/07/17 10:34:10;;;;;;;2.67;1.33;;;43.00;41.70;;;;;;4977121;28;20023;-69
2022/07/17 10:36:42;;;;;;;3.25;1.50;;;43.00;41.50;;;;;;4972620;28;20034;-65
2022/07/17 10:39:20;;;;;;;3.53;2.00;;;43.30;41.60;;;;;;4975375;28;20034;-68
2022/07/17 10:42:00;;;;;;;2.83;1.75;;;43.40;41.50;;;;;;4967690;28;20052;-69
2022/07/17 10:44:28;;;;;;;3.72;1.60;;;43.50;41.50;;;;;;4974922;28;20043;-67
2022/07/17 10:46:55;;;;;;;3.05;1.60;;;43.60;41.20;;;;;;4974761;28;20464;-69
2022/07/17 10:49:21;;;;;;;4.63;1.90;;;43.70;40.80;;;;;;4974972;28;20022;-66
2022/07/17 10:51:46;;;;;;;4.50;1.88;;;43.80;40.80;;;;;;4973507;28;20348;-69
2022/07/17 10:54:13;;;;;;;2.28;1.63;;;43.90;41.00;;;;;;4973659;28;20045;-66
2022/07/17 10:56:44;;;;;;;3.50;1.80;;;43.60;40.60;;;;;;4974909;28;20027;-67
2022/07/17 10:59:10;;;;;;;5.70;2.05;;;43.70;40.60;;;;;;4974981;28;20030;-65
2022/07/17 11:01:35;;;;;;;3.70;1.63;;;43.80;40.50;;;;;;4973935;28;20023;-65
2022/07/17 11:04:07;;;;;;;4.32;1.80;;;43.60;40.70;;;;;;4974872;28;20374;-66
2022/07/17 11:06:37;;;;;;;4.97;2.28;;;43.30;40.60;;;;;;4975506;28;20461;-67
2022/07/17 11:09:10;;;;;;;4.28;2.30;;;43.00;40.80;;;;;;4974560;28;20018;-66
2022/07/17 11:11:40;;;;;;;4.13;2.15;;;42.70;40.20;;;;;;4973618;28;20416;-67
2022/07/17 11:14:14;;;;;;;3.20;2.03;;;42.50;40.40;;;;;;4974059;28;20444;-67
2022/07/17 11:17:06;;;;;;;5.55;2.90;;;42.10;40.50;;;;;;4986440;28;20433;-67
2022/07/17 11:19:35;;;;;;;3.33;2.05;;;41.90;40.80;;;;;;4954920;28;20090;-66
2022/07/17 11:22:06;;;;;;;5.03;2.00;;;42.10;40.70;;;;;;4954847;28;20023;-66
2022/07/17 11:24:43;;;;;;;3.85;2.83;;;42.30;40.80;;;;;;4955327;28;20069;-70
2022/07/17 11:27:20;;;;;;;3.42;2.38;;;42.70;40.50;;;;;;4954355;28;20027;-68
2022/07/17 11:29:46;;;;;;;6.30;2.60;;;42.70;40.40;;;;;;4968765;28;20634;-67
2022/07/17 11:32:12;;;;;;;4.38;2.45;;;42.80;40.20;;;;;;4974472;28;20033;-67
2022/07/17 11:34:37;;;;;;;5.13;2.55;;;42.70;40.00;;;;;;4974753;28;20027;-67
2022/07/17 11:37:05;;;;;;;6.43;3.20;;;42.70;40.40;;;;;;4974661;28;20023;-66
2022/07/17 11:39:41;;;;;;;4.43;2.42;;;42.70;39.80;;;;;;4974502;28;20023;-66
2022/07/17 11:42:10;;;;;;;4.88;2.47;;;42.60;39.90;;;;;;4974091;28;20037;-66
2022/07/17 11:44:35;;;;;;;8.88;3.60;;;41.90;40.40;;;;;;4973923;28;20054;-66
2022/07/17 11:47:01;;;;;;;4.88;2.80;;;41.40;40.70;;;;;;4973691;28;20464;-67
2022/07/17 11:49:35;;;;;;;4.47;2.90;;;41.10;41.30;;;;;;4974071;28;20029;-67
2022/07/17 11:52:09;;;;;;;4.65;2.30;;;41.30;41.20;;;;;;4967353;28;20027;-66
2022/07/17 11:54:54;;;;;;;6.07;2.95;;;41.60;41.10;;;;;;4974247;28;20030;-66
2022/07/17 11:57:21;;;;;;;5.13;3.05;;;41.80;40.80;;;;;;4974030;28;20022;-66
2022/07/17 11:59:47;;;;;;;4.70;2.90;;;42.00;40.70;;;;;;4974033;28;20027;-67
2022/07/17 12:02:16;;;;;;;5.55;2.85;;;42.10;40.60;;;;;;4974538;28;20031;-66
2022/07/17 12:04:56;;;;;;;7.22;3.30;;;42.10;40.70;;;;;;4973717;28;20045;-66
2022/07/17 12:07:24;;;;;;;6.38;3.55;;;42.40;40.40;;;;;;4973718;28;20081;-68
2022/07/17 12:09:51;;;;;;;6.15;3.92;;;42.40;40.90;;;;;;4974048;28;20034;-68
2022/07/17 12:12:25;;;;;;;6.47;3.67;;;42.40;39.90;;;;;;4974287;28;20027;-66
2022/07/17 12:14:58;;;;;;;6.32;3.63;;;42.50;40.10;;;;;;4973899;28;20022;-67
2022/07/17 12:17:36;;;;;;;5.55;3.63;;;42.60;39.60;;;;;;4974191;28;20045;-66
2022/07/17 12:20:06;;;;;;;5.03;3.38;;;42.70;39.80;;;;;;4973942;28;20540;-66
2022/07/17 12:22:45;;;;;;;;;;;42.90;39.60;;;;;;4972200;28;20033;-67
2022/07/17 12:25:22;;;;;;;6.35;3.50;;;42.80;39.60;;;;;;4959359;28;20001;-66
2022/07/17 12:27:47;;;;;;;6.10;3.78;;;42.70;39.50;;;;;;4956392;28;20031;-68
2022/07/17 12:30:13;;;;;;;5.40;3.90;;;42.60;39.90;;;;;;4971911;28;20027;-67
2022/07/17 12:32:42;;;;;;;6.32;3.88;;;42.50;39.90;;;;;;4973281;28;20089;-68
2022/07/17 12:35:08;;;;;;;5.72;3.60;;;42.40;39.80;;;;;;4962484;28;20465;-69
2022/07/17 12:37:33;;;;;;;6.97;3.65;;;42.50;39.90;;;;;;4961380;28;20026;-67
2022/07/17 12:39:59;;;;;;;5.80;4.03;;;42.50;39.50;;;;;;4977472;28;20060;-69
2022/07/17 12:42:25;;;;;;;7.25;3.45;;;42.40;39.70;;;;;;4975462;28;20022;-69
2022/07/17 12:44:50;;;;;;;5.00;3.85;;;42.30;39.40;;;;;;4973818;28;20369;-68
2022/07/17 12:47:16;;;;;;;5.93;3.20;;;42.10;39.60;;;;;;4972869;28;20452;-67
2022/07/17 12:49:41;;;;;;;5.75;2.65;;;41.80;40.20;;;;;;4971509;28;20679;-67